Time;durP1;ratioP1;P1;durP2;ratioP2;P2;SDS_P1;SDS_P2;PMS_P1;PMS_P2;Temp;Humidity;BMP_temperature;BMP_pressure;BME280_temperature;BME280_humidity;BME280_pressure;Samples;Min_cycle;Max_cycle;Signal;HPM_P1;HPM_P2
2022/08/02 00:01:01;;;;;;;8.48;3.92;;;;;;;23.47;73.63;100383.69;1939070;74;21112;-68
2022/08/02 00:03:30;;;;;;;10.32;4.10;;;;;;;23.46;73.76;100394.11;1939120;74;21029;-67
2022/08/02 00:05:59;;;;;;;8.18;4.20;;;;;;;23.46;73.82;100388.73;1939014;74;21120;-68
2022/08/02 00:08:27;;;;;;;9.63;3.80;;;;;;;23.47;74.15;100391.75;1939114;74;21037;-68
2022/08/02 00:10:56;;;;;;;6.12;3.90;;;;;;;23.50;74.72;100399.52;1939234;74;21005;-67
2022/08/02 00:13:25;;;;;;;7.65;3.77;;;;;;;23.51;74.91;100398.50;1939062;74;21001;-67
2022/08/02 00:15:53;;;;;;;9.30;4.12;;;;;;;23.51;74.76;100403.88;1939074;74;21064;-67
2022/08/02 00:18:22;;;;;;;6.25;3.65;;;;;;;23.51;74.66;100402.53;1938993;73;21090;-68
2022/08/02 00:20:51;;;;;;;5.35;3.92;;;;;;;23.51;74.59;100403.88;1939169;74;21053;-68
2022/08/02 00:23:19;;;;;;;6.05;3.90;;;;;;;23.52;74.51;100407.43;1939067;74;21092;-68
2022/08/02 00:25:48;;;;;;;7.40;3.42;;;;;;;23.53;74.54;100408.27;1939047;74;21029;-68
2022/08/02 00:28:17;;;;;;;6.75;3.80;;;;;;;23.53;74.50;100416.33;1939106;74;21005;-69
2022/08/02 00:30:45;;;;;;;7.85;4.25;;;;;;;23.50;74.65;100408.09;1939041;74;21034;-68
2022/08/02 00:33:14;;;;;;;6.08;3.70;;;;;;;23.45;74.42;100413.90;1939017;74;21077;-67
2022/08/02 00:35:46;;;;;;;6.15;3.30;;;;;;;23.42;74.34;100412.84;1939202;74;21025;-67
2022/08/02 00:38:13;;;;;;;6.80;3.50;;;;;;;23.40;74.35;100412.16;1939209;74;21107;-67
2022/08/02 00:40:43;;;;;;;5.72;4.33;;;;;;;23.40;74.55;100410.81;1939289;74;21084;-67
2022/08/02 00:43:12;;;;;;;6.20;3.52;;;;;;;23.42;74.69;100416.05;1939493;73;21013;-68
2022/08/02 00:45:43;;;;;;;5.35;3.65;;;;;;;23.42;74.62;100419.56;1939737;74;21030;-68
2022/08/02 00:48:13;;;;;;;4.55;3.02;;;;;;;23.42;74.65;100418.22;1939806;74;21114;-68
2022/08/02 00:50:42;;;;;;;6.65;2.85;;;;;;;23.42;74.73;100423.59;1939811;74;21029;-68
2022/08/02 00:53:11;;;;;;;4.37;2.83;;;;;;;23.44;74.56;100422.97;1939946;74;21061;-68
2022/08/02 00:55:39;;;;;;;4.20;2.65;;;;;;;23.45;74.37;100423.30;1939726;74;21154;-68
2022/08/02 00:58:08;;;;;;;6.40;3.35;;;;;;;23.48;74.43;100427.04;1939599;74;21033;-67
2022/08/02 01:00:37;;;;;;;4.97;3.33;;;;;;;23.49;74.33;100428.72;1939762;74;21009;-68
2022/08/02 01:03:05;;;;;;;4.40;3.75;;;;;;;23.51;74.28;100428.57;1939734;74;21049;-68
2022/08/02 01:05:34;;;;;;;4.05;3.22;;;;;;;23.53;74.24;100431.11;1939699;74;21146;-67
2022/08/02 01:08:03;;;;;;;6.78;3.80;;;;;;;23.55;74.16;100429.11;1939708;74;21029;-67
2022/08/02 01:10:32;;;;;;;7.25;3.85;;;;;;;23.57;74.02;100427.11;1939391;74;21468;-67
2022/08/02 01:13:01;;;;;;;4.95;3.05;;;;;;;23.55;73.93;100428.61;1939791;74;21458;-67
2022/08/02 01:15:30;;;;;;;4.25;2.80;;;;;;;23.55;73.84;100431.80;1939793;74;21108;-67
2022/08/02 01:18:05;;;;;;;5.85;3.47;;;;;;;23.55;73.80;100435.83;1939691;74;21057;-67
2022/08/02 01:21:06;;;;;;;5.85;2.90;;;;;;;23.55;73.76;100435.83;1939747;74;21142;-67
2022/08/02 01:23:49;;;;;;;6.85;3.10;;;;;;;23.55;73.73;100429.95;1939786;74;21030;-67
2022/08/02 01:26:33;;;;;;;8.73;4.30;;;;;;;23.58;73.70;100435.53;1939471;74;21045;-67
2022/08/02 01:29:13;;;;;;;4.15;3.12;;;;;;;23.60;73.73;100434.88;1939261;74;21107;-69
2022/08/02 01:32:00;;;;;;;7.50;3.50;;;;;;;23.61;73.66;100431.18;1938237;74;21033;-67
2022/08/02 01:34:37;;;;;;;5.40;3.17;;;;;;;23.64;73.67;100426.86;1939637;74;21099;-67
2022/08/02 01:37:20;;;;;;;4.03;3.00;;;;;;;23.64;73.59;100422.83;1939749;73;21042;-67
2022/08/02 01:39:52;;;;;;;11.20;3.08;;;;;;;23.66;73.57;100427.55;1939719;74;21573;-67
2022/08/02 01:42:23;;;;;;;10.00;3.40;;;;;;;23.67;73.59;100427.91;1938861;73;21072;-67
2022/08/02 01:44:53;;;;;;;6.58;3.37;;;;;;;23.69;73.61;100432.12;1939131;73;21509;-67
2022/08/02 01:47:25;;;;;;;3.87;2.75;;;;;;;23.71;73.64;100429.28;1939002;74;21009;-67
2022/08/02 01:49:57;;;;;;;9.13;3.25;;;;;;;23.71;73.60;100430.63;1939156;74;21475;-68
2022/08/02 01:52:28;;;;;;;6.25;3.35;;;;;;;23.72;73.63;100439.05;1939068;74;21115;-67
2022/08/02 01:55:14;;;;;;;4.85;3.37;;;;;;;23.73;73.66;100437.20;1939018;74;21021;-67
2022/08/02 01:57:49;;;;;;;9.65;3.85;;;;;;;23.73;73.76;100432.66;1939027;74;21472;-67
2022/08/02 02:00:19;;;;;;;4.22;3.17;;;;;;;23.73;73.76;100438.03;1939154;74;21033;-68
2022/08/02 02:02:49;;;;;;;8.05;3.60;;;;;;;23.72;73.82;100436.36;1939192;74;21420;-68
2022/08/02 02:05:20;;;;;;;4.65;3.35;;;;;;;23.70;74.02;100438.36;1939288;74;21118;-67
2022/08/02 02:07:51;;;;;;;5.53;3.42;;;;;;;23.70;74.12;100437.02;1939249;74;21106;-67
2022/08/02 02:10:31;;;;;;;4.80;3.47;;;;;;;23.68;74.34;100433.61;1939154;74;21111;-68
2022/08/02 02:13:06;;;;;;;6.37;3.08;;;;;;;23.66;74.53;100434.27;1939144;74;21029;-68
2022/08/02 02:15:37;;;;;;;6.92;4.00;;;;;;;23.63;74.47;100431.91;1939228;74;21077;-67
2022/08/02 02:18:07;;;;;;;8.53;4.03;;;;;;;23.59;74.50;100438.55;1938803;74;21111;-67
2022/08/02 02:20:36;;;;;;;8.78;3.85;;;;;;;23.57;74.51;100437.39;1939243;73;21025;-67
2022/08/02 02:23:05;;;;;;;5.53;3.77;;;;;;;23.55;74.60;100445.23;1939135;74;21142;-67
2022/08/02 02:25:34;;;;;;;5.97;4.05;;;;;;;23.50;74.58;100453.26;1939158;74;21029;-67
2022/08/02 02:28:05;;;;;;;5.72;4.03;;;;;;;23.46;74.61;100451.01;1939227;74;21037;-67
2022/08/02 02:30:36;;;;;;;8.83;4.60;;;;;;;23.42;74.66;100454.49;1937951;74;21100;-67
2022/08/02 02:33:07;;;;;;;6.80;4.28;;;;;;;23.39;74.74;100460.69;1939188;73;21053;-67
2022/08/02 02:35:38;;;;;;;7.55;4.00;;;;;;;23.37;74.87;100462.18;1939076;74;21107;-67
2022/08/02 02:38:09;;;;;;;7.65;4.75;;;;;;;23.38;74.96;100458.48;1939109;74;21037;-68
2022/08/02 02:40:40;;;;;;;8.13;4.42;;;;;;;23.41;75.03;100456.84;1939110;74;21025;-68
2022/08/02 02:43:12;;;;;;;5.90;4.00;;;;;;;23.43;75.00;100448.14;1939906;74;21523;-68
2022/08/02 02:45:42;;;;;;;10.53;4.42;;;;;;;23.46;74.91;100442.95;1939823;74;21033;-67
2022/08/02 02:48:11;;;;;;;7.20;4.20;;;;;;;23.46;74.81;100445.63;1939876;74;21559;-68
2022/08/02 02:50:41;;;;;;;11.53;4.62;;;;;;;23.46;74.74;100451.88;1939685;74;21041;-68
2022/08/02 02:53:12;;;;;;;14.83;5.33;;;;;;;23.45;74.71;100443.45;1939886;74;21005;-67
2022/08/02 02:55:43;;;;;;;14.80;5.80;;;;;;;23.45;74.66;100460.92;1939861;74;21029;-67
2022/08/02 02:58:13;;;;;;;12.28;4.97;;;;;;;23.45;74.65;100460.92;1939781;74;21479;-67
2022/08/02 03:03:29;;;;;;;7.65;4.60;;;;;;;23.54;74.69;100452.97;1939787;74;21484;-67
2022/08/02 03:05:58;;;;;;;10.80;3.80;;;;;;;23.60;74.61;100445.63;1939773;74;21479;-67
2022/08/02 03:08:26;;;;;;;6.22;4.47;;;;;;;23.74;74.70;100442.91;1939788;74;21091;-67
2022/08/02 03:10:56;;;;;;;8.25;3.83;;;;;;;23.91;74.73;100460.09;1939622;74;21150;-67
2022/08/02 03:13:25;;;;;;;11.05;4.37;;;;;;;24.03;74.63;100461.06;1939656;74;21547;-67
2022/08/02 03:15:54;;;;;;;9.98;4.62;;;;;;;24.20;74.64;100467.42;1939676;74;21130;-67
2022/08/02 03:18:37;;;;;;;6.00;4.12;;;;;;;24.41;74.88;100479.18;1939875;74;21025;-67
2022/08/02 03:21:07;;;;;;;;;;;;;;;24.64;75.02;100489.46;1942597;73;21103;-67
2022/08/02 03:23:36;;;;;;;5.58;3.83;;;;;;;24.80;74.73;100482.84;1939882;74;20151;-67
2022/08/02 03:26:05;;;;;;;7.47;4.08;;;;;;;24.90;74.24;100480.06;1939652;74;21922;-67
2022/08/02 03:28:33;;;;;;;8.20;4.00;;;;;;;24.96;73.96;100475.88;1939803;74;21091;-67
2022/08/02 03:31:02;;;;;;;7.78;4.40;;;;;;;25.02;73.70;100465.80;1939770;74;21029;-67
2022/08/02 03:33:33;;;;;;;9.78;4.60;;;;;;;25.16;73.84;100460.33;1939767;74;21021;-67
2022/08/02 03:36:07;;;;;;;8.23;4.37;;;;;;;25.28;73.99;100467.13;1939681;74;21049;-68
2022/08/02 03:38:37;;;;;;;10.78;4.30;;;;;;;25.33;73.67;100468.00;1938902;74;21508;-67
2022/08/02 03:41:07;;;;;;;5.85;4.05;;;;;;;25.33;73.29;100460.76;1939845;74;21832;-67
2022/08/02 03:43:38;;;;;;;9.18;4.35;;;;;;;25.42;73.18;100457.08;1939093;74;21142;-67
2022/08/02 03:46:08;;;;;;;12.18;4.30;;;;;;;25.56;73.15;100453.41;1939102;74;21118;-67
2022/08/02 03:48:38;;;;;;;6.92;4.12;;;;;;;25.70;73.14;100454.13;1939194;74;21095;-68
2022/08/02 03:51:08;;;;;;;5.50;4.00;;;;;;;25.79;72.99;100459.87;1938926;74;21030;-68
2022/08/02 03:53:38;;;;;;;8.03;3.35;;;;;;;25.89;72.78;100454.82;1939100;74;21582;-67
2022/08/02 03:56:07;;;;;;;6.50;3.83;;;;;;;26.05;72.74;100453.52;1939050;74;21044;-68
2022/08/02 03:58:36;;;;;;;6.05;3.95;;;;;;;26.14;72.63;100448.47;1939203;74;21080;-67
2022/08/02 04:01:04;;;;;;;6.05;4.08;;;;;;;26.08;72.15;100459.94;1939169;74;21027;-67
2022/08/02 04:03:33;;;;;;;9.68;3.85;;;;;;;26.00;71.74;100466.66;1938988;74;21041;-67
2022/08/02 04:06:02;;;;;;;9.95;3.77;;;;;;;26.07;71.44;100458.24;1939055;74;21110;-67
2022/08/02 04:08:30;;;;;;;7.15;3.62;;;;;;;26.26;71.22;100444.91;1939077;74;21520;-67
2022/08/02 04:13:46;;;;;;;7.40;4.22;;;;;;;26.49;70.51;100438.33;1939136;74;21076;-67
2022/08/02 04:16:17;;;;;;;5.95;4.10;;;;;;;26.39;70.22;100448.45;1939040;74;21216;-68
2022/08/02 04:18:55;;;;;;;5.70;3.92;;;;;;;26.30;70.06;100456.21;1938896;74;21085;-68
2022/08/02 04:21:26;;;;;;;7.40;3.83;;;;;;;26.16;69.90;100463.98;1937840;74;21041;-67
2022/08/02 04:23:57;;;;;;;8.08;3.70;;;;;;;26.02;69.96;100464.64;1938938;74;21033;-67
2022/08/02 04:26:26;;;;;;;7.12;3.67;;;;;;;25.88;70.18;100459.90;1938949;74;21068;-67
2022/08/02 04:28:55;;;;;;;5.05;3.22;;;;;;;25.72;70.64;100453.96;1939027;74;21052;-66
2022/08/02 04:31:25;;;;;;;6.53;3.05;;;;;;;25.59;70.68;100456.62;1939026;74;21559;-67
2022/08/02 04:33:54;;;;;;;5.70;2.58;;;;;;;25.47;70.53;100448.52;1939065;74;21480;-67
2022/08/02 04:36:24;;;;;;;6.35;2.80;;;;;;;25.36;70.43;100447.45;1939117;74;21025;-67
2022/08/02 04:38:52;;;;;;;4.03;2.50;;;;;;;25.26;70.46;100443.55;1938871;74;21001;-68
2022/08/02 04:41:21;;;;;;;3.77;2.40;;;;;;;25.18;70.47;100442.98;1939080;74;21065;-67
2022/08/02 04:43:51;;;;;;;5.40;2.55;;;;;;;25.14;70.45;100448.36;1939326;74;21147;-67
2022/08/02 04:46:19;;;;;;;5.22;2.85;;;;;;;25.09;70.45;100446.65;1939691;74;21038;-67
2022/08/02 04:48:48;;;;;;;5.97;2.95;;;;;;;25.06;70.50;100459.09;1939768;74;21013;-67
2022/08/02 04:51:17;;;;;;;5.58;3.20;;;;;;;25.02;70.80;100467.16;1939828;74;21565;-67
2022/08/02 04:53:45;;;;;;;5.35;2.55;;;;;;;24.99;70.63;100457.56;1939773;74;21115;-67
2022/08/02 04:56:14;;;;;;;9.25;2.75;;;;;;;25.00;70.51;100456.53;1939695;74;21033;-68
2022/08/02 04:58:42;;;;;;;7.37;2.70;;;;;;;25.04;70.02;100444.42;1939710;74;21029;-67
2022/08/02 05:01:11;;;;;;;5.28;2.27;;;;;;;25.05;69.22;100454.21;1939783;74;21033;-67
2022/08/02 05:03:39;;;;;;;5.60;2.33;;;;;;;25.05;68.06;100446.13;1939707;74;21005;-67
2022/08/02 05:06:08;;;;;;;4.87;2.45;;;;;;;25.18;67.80;100451.58;1939603;74;21029;-67
2022/08/02 05:08:37;;;;;;;5.90;2.33;;;;;;;25.36;66.68;100447.45;1939713;74;21033;-67
2022/08/02 05:11:05;;;;;;;5.40;2.50;;;;;;;25.37;65.62;100446.45;1939749;74;21029;-68
2022/08/02 05:13:34;;;;;;;6.15;2.95;;;;;;;25.36;65.18;100448.80;1939829;73;21073;-67
2022/08/02 05:16:03;;;;;;;8.48;2.60;;;;;;;25.32;64.93;100460.41;1939507;74;21099;-67
2022/08/02 05:18:32;;;;;;;4.03;2.20;;;;;;;25.27;64.53;100451.12;1939587;74;21098;-69
2022/08/02 05:21:00;;;;;;;7.80;2.90;;;;;;;25.21;63.29;100452.58;1939658;74;21088;-67
2022/08/02 05:23:29;;;;;;;4.78;2.22;;;;;;;25.20;63.24;100446.87;1939606;74;21095;-67
2022/08/02 05:25:58;;;;;;;4.33;2.70;;;;;;;25.34;63.41;100438.69;1939819;74;21033;-67
2022/08/02 05:28:26;;;;;;;8.38;2.50;;;;;;;25.81;63.65;100444.88;1939697;74;21052;-67
2022/08/02 05:30:55;;;;;;;4.45;2.60;;;;;;;26.19;62.98;100446.11;1939659;74;21021;-67
2022/08/02 05:33:23;;;;;;;6.05;2.98;;;;;;;26.34;62.69;100454.37;1939574;74;21143;-67
2022/08/02 05:35:52;;;;;;;6.03;3.05;;;;;;;26.40;62.35;100455.55;1939635;74;21091;-67
2022/08/02 05:38:21;;;;;;;7.47;2.92;;;;;;;26.47;62.16;100455.20;1939917;74;21100;-67
2022/08/02 05:40:49;;;;;;;7.50;2.70;;;;;;;26.50;61.25;100454.84;1939913;74;21099;-67
2022/08/02 05:43:20;;;;;;;5.20;2.92;;;;;;;26.70;61.15;100458.56;1939701;74;21001;-67
2022/08/02 05:45:48;;;;;;;5.42;2.80;;;;;;;26.93;60.43;100463.58;1939250;74;21199;-67
2022/08/02 05:48:17;;;;;;;7.58;3.02;;;;;;;27.11;60.23;100462.48;1939188;74;21080;-67
2022/08/02 05:50:48;;;;;;;3.45;2.47;;;;;;;27.12;60.19;100462.32;1939160;74;21033;-67
2022/08/02 05:53:26;;;;;;;3.50;2.37;;;;;;;27.03;60.25;100470.64;1939175;74;21617;-67
2022/08/02 05:56:03;;;;;;;5.50;2.55;;;;;;;26.91;59.70;100479.12;1938883;74;21033;-67
2022/08/02 05:58:36;;;;;;;4.60;3.02;;;;;;;26.88;59.86;100476.75;1927874;74;21503;-67
2022/08/02 06:01:05;;;;;;;;;;;;;;;26.87;59.76;100474.22;1939988;74;21111;-67
2022/08/02 06:03:42;;;;;;;6.97;2.67;;;;;;;26.87;60.03;100469.69;1939346;74;20367;-67
2022/08/02 06:06:19;;;;;;;5.75;2.80;;;;;;;26.86;60.11;100464.45;1938117;74;21093;-67
2022/08/02 06:08:51;;;;;;;7.03;3.02;;;;;;;26.88;60.21;100463.25;1939085;74;21171;-67
2022/08/02 06:11:24;;;;;;;5.25;2.98;;;;;;;26.99;60.19;100459.85;1939119;74;21029;-67
2022/08/02 06:13:54;;;;;;;4.37;2.70;;;;;;;27.18;60.13;100464.83;1939253;74;21005;-67
2022/08/02 06:16:25;;;;;;;5.60;2.72;;;;;;;27.28;60.09;100461.94;1939132;74;21037;-67
2022/08/02 06:18:54;;;;;;;7.55;3.08;;;;;;;27.50;60.03;100469.77;1939325;74;21484;-68
2022/08/02 06:21:24;;;;;;;5.05;3.17;;;;;;;28.25;59.35;100468.30;1939105;74;21088;-67
2022/08/02 19:12:07;;;;;;;19.73;9.33;;;;;;;24.76;70.89;100682.58;1888745;75;21599;-71
2022/08/02 19:14:35;;;;;;;17.65;8.50;;;;;;;24.72;71.23;100683.89;1882516;76;21043;-72
2022/08/02 19:17:04;;;;;;;13.68;9.23;;;;;;;24.70;71.44;100683.17;1882645;76;21490;-71
2022/08/02 19:19:36;;;;;;;15.60;9.03;;;;;;;24.69;71.41;100682.33;1882672;76;21040;-71
2022/08/02 19:22:04;;;;;;;16.12;8.90;;;;;;;24.68;71.36;100685.17;1882229;76;21059;-71
2022/08/02 19:24:33;;;;;;;16.85;9.20;;;;;;;24.64;71.35;100687.32;1882718;76;21115;-71
2022/08/02 19:27:02;;;;;;;15.88;8.48;;;;;;;24.61;71.36;100689.83;1882482;76;21113;-71
2022/08/02 19:29:30;;;;;;;14.18;8.50;;;;;;;24.59;71.58;100687.80;1882728;76;21007;-72
2022/08/02 19:31:59;;;;;;;15.40;8.65;;;;;;;24.57;71.51;100684.41;1882653;76;21110;-72
2022/08/02 19:34:28;;;;;;;19.48;9.00;;;;;;;24.57;71.44;100683.06;1863214;76;21110;-72
2022/08/02 19:36:56;;;;;;;15.63;9.23;;;;;;;24.55;71.32;100682.38;1882665;76;21152;-72
2022/08/02 19:39:26;;;;;;;20.80;10.53;;;;;;;24.52;71.58;100675.94;1882535;76;21114;-74
2022/08/02 19:41:55;;;;;;;18.82;9.85;;;;;;;24.50;71.94;100678.41;1882662;76;21036;-72
2022/08/02 19:44:24;;;;;;;16.95;9.98;;;;;;;24.44;72.18;100679.36;1882658;76;21458;-73
2022/08/02 19:46:53;;;;;;;26.40;9.90;;;;;;;24.40;72.45;100674.42;1882614;76;21117;-72
2022/08/02 19:49:21;;;;;;;24.25;10.50;;;;;;;24.34;72.52;100675.03;1882634;76;21036;-73
2022/08/02 19:51:50;;;;;;;22.85;11.22;;;;;;;24.28;72.90;100677.33;1882591;75;21498;-71
2022/08/02 19:54:21;;;;;;;28.60;11.65;;;;;;;24.27;73.20;100673.44;1882620;75;21102;-72
2022/08/02 19:56:49;;;;;;;18.42;10.30;;;;;;;24.27;73.16;100672.96;1882655;76;21149;-72
2022/08/02 19:59:18;;;;;;;20.20;10.85;;;;;;;24.27;73.67;100678.34;1882625;76;21040;-74
2022/08/02 20:01:48;;;;;;;24.15;11.78;;;;;;;24.24;74.29;100667.03;1881903;76;21442;-66
2022/08/02 20:04:17;;;;;;;26.55;11.22;;;;;;;24.16;74.83;100665.09;1882599;76;21048;-67
2022/08/02 20:06:47;;;;;;;23.02;10.78;;;;;;;24.14;75.07;100671.61;1882663;76;21063;-66
2022/08/02 20:09:16;;;;;;;18.32;9.40;;;;;;;24.09;75.27;100670.22;1882583;76;21039;-70
2022/08/02 20:11:46;;;;;;;27.15;11.85;;;;;;;24.04;75.03;100667.13;1882702;75;21509;-71
2022/08/02 20:14:14;;;;;;;29.02;10.28;;;;;;;24.01;74.88;100666.58;1882653;76;21040;-71
2022/08/02 20:16:43;;;;;;;23.65;11.38;;;;;;;23.93;74.99;100664.64;1882710;75;21036;-71
2022/08/02 20:19:12;;;;;;;26.85;11.10;;;;;;;23.85;74.99;100665.38;1882563;76;21485;-71
2022/08/02 20:21:42;;;;;;;22.00;11.38;;;;;;;23.75;75.94;100672.59;1882682;76;21440;-71
2022/08/02 20:24:11;;;;;;;22.90;11.50;;;;;;;23.67;76.30;100672.50;1882814;76;21453;-70
2022/08/02 20:26:40;;;;;;;22.45;12.13;;;;;;;23.63;76.66;100680.51;1882662;76;21074;-70
2022/08/02 20:29:09;;;;;;;27.05;12.43;;;;;;;23.55;77.20;100682.55;1882640;76;21524;-71
2022/08/02 20:31:38;;;;;;;26.82;11.28;;;;;;;23.49;77.62;100679.95;1882555;76;21035;-71
2022/08/02 20:34:06;;;;;;;23.12;11.08;;;;;;;23.43;77.73;100676.52;1882755;76;21117;-69
2022/08/02 20:36:35;;;;;;;26.17;11.18;;;;;;;23.36;78.53;100675.39;1882642;76;21161;-69
2022/08/02 20:39:04;;;;;;;24.02;10.85;;;;;;;23.34;78.56;100680.07;1882645;76;21583;-70
2022/08/02 20:41:33;;;;;;;27.77;12.10;;;;;;;23.31;78.90;100686.59;1882657;76;21119;-70
2022/08/02 20:44:01;;;;;;;23.80;12.35;;;;;;;23.27;79.16;100689.19;1882542;76;21035;-70
2022/08/02 20:46:30;;;;;;;25.45;11.60;;;;;;;23.26;79.38;100690.70;1882679;75;21074;-70
2022/08/02 20:48:59;;;;;;;20.35;9.93;;;;;;;23.21;79.42;100677.69;1882726;75;21036;-69
2022/08/02 20:51:27;;;;;;;20.35;10.40;;;;;;;23.17;79.26;100685.69;1882645;76;21035;-69
2022/08/02 20:53:56;;;;;;;23.02;10.95;;;;;;;23.15;79.29;100688.14;1882649;76;21028;-69
2022/08/02 20:56:24;;;;;;;23.92;10.58;;;;;;;23.10;79.16;100684.05;1882672;76;21039;-69
2022/08/02 20:58:53;;;;;;;23.67;11.33;;;;;;;23.10;79.17;100678.69;1882564;76;21091;-69
2022/08/02 21:01:23;;;;;;;30.48;10.82;;;;;;;23.10;79.01;100677.84;1882626;76;21039;-70
2022/08/02 21:03:52;;;;;;;20.92;11.00;;;;;;;23.05;78.94;100678.26;1882694;76;21035;-70
2022/08/02 21:06:21;;;;;;;23.07;11.12;;;;;;;23.02;79.15;100675.84;1882691;76;21044;-70
2022/08/02 21:08:49;;;;;;;24.20;11.85;;;;;;;23.03;79.64;100684.23;1882818;75;21079;-69
2022/08/02 21:11:18;;;;;;;25.48;11.57;;;;;;;23.04;79.70;100675.23;1882635;76;21129;-69
2022/08/02 21:13:46;;;;;;;22.32;11.33;;;;;;;23.00;80.17;100673.80;1894880;73;21063;-69
2022/08/02 21:16:15;;;;;;;22.77;11.60;;;;;;;22.97;80.41;100670.05;1882784;76;21040;-68
2022/08/02 21:18:44;;;;;;;22.73;11.70;;;;;;;22.96;80.55;100669.68;1882801;76;21484;-69
2022/08/02 21:21:13;;;;;;;22.58;11.68;;;;;;;22.99;80.57;100676.12;1882764;76;21036;-69
2022/08/02 21:23:42;;;;;;;18.25;10.95;;;;;;;23.03;80.37;100672.16;1882665;76;21032;-69
2022/08/02 21:26:10;;;;;;;22.90;10.38;;;;;;;23.05;80.13;100675.58;1882673;76;21032;-70
2022/08/02 21:28:39;;;;;;;22.52;10.45;;;;;;;23.06;79.79;100674.59;1882727;76;21037;-71
2022/08/02 21:31:07;;;;;;;16.57;9.65;;;;;;;23.04;79.66;100673.89;1882712;76;21102;-72
2022/08/02 21:33:36;;;;;;;21.12;11.00;;;;;;;23.02;79.79;100675.84;1882751;76;21036;-71
2022/08/02 21:36:05;;;;;;;19.77;10.60;;;;;;;22.98;80.14;100665.05;1882762;76;21462;-72
2022/08/02 21:38:33;;;;;;;21.30;10.82;;;;;;;22.97;80.14;100660.66;1882722;76;21035;-72
2022/08/02 21:41:04;;;;;;;25.95;11.03;;;;;;;22.97;80.52;100664.68;1882778;76;21101;-72
2022/08/02 21:43:32;;;;;;;19.48;11.38;;;;;;;22.97;80.08;100663.84;1882788;76;21060;-73
2022/08/02 21:46:01;;;;;;;22.13;10.75;;;;;;;22.97;80.26;100658.47;1882760;76;21039;-72
2022/08/02 21:48:30;;;;;;;33.50;12.03;;;;;;;22.97;80.17;100655.28;1882706;76;21083;-72
2022/08/02 21:50:58;;;;;;;20.02;11.05;;;;;;;22.98;79.84;100655.65;1882696;76;21028;-72
2022/08/02 21:53:27;;;;;;;22.15;11.53;;;;;;;22.97;79.65;100658.47;1882730;76;21032;-71
2022/08/02 21:55:55;;;;;;;20.02;12.37;;;;;;;22.94;79.68;100650.19;1882719;76;21000;-72
2022/08/02 21:58:24;;;;;;;20.75;11.80;;;;;;;22.89;80.19;100647.11;1882753;76;21031;-70
2022/08/02 22:00:52;;;;;;;22.25;12.05;;;;;;;22.84;80.35;100656.07;1882678;76;21105;-70
2022/08/02 22:03:21;;;;;;;20.37;10.88;;;;;;;22.76;80.65;100654.09;1882591;76;21094;-72
2022/08/02 22:05:50;;;;;;;18.52;11.63;;;;;;;22.72;80.68;100649.98;1882785;76;21090;-71
2022/08/02 22:08:18;;;;;;;21.80;11.33;;;;;;;22.72;80.68;100653.53;1882704;76;21008;-71
2022/08/02 22:11:02;;;;;;;20.08;10.78;;;;;;;22.69;80.82;100647.09;1882768;76;21075;-71
2022/08/02 22:13:33;;;;;;;22.27;11.95;;;;;;;22.68;80.71;100657.46;1882676;76;21108;-71
2022/08/02 22:16:04;;;;;;;22.50;11.20;;;;;;;22.63;80.97;100657.06;1900574;75;21061;-71
2022/08/02 22:18:33;;;;;;;23.25;11.63;;;;;;;22.58;81.06;100653.94;1903833;75;21096;-70
2022/08/02 22:21:02;;;;;;;19.42;10.88;;;;;;;22.54;81.22;100652.53;1903891;75;21497;-70
2022/08/02 22:23:30;;;;;;;25.20;12.25;;;;;;;22.53;81.33;100657.53;1903814;75;21474;-71
2022/08/02 22:25:59;;;;;;;26.00;12.55;;;;;;;22.48;81.42;100656.63;1903966;75;21097;-70
2022/08/02 22:28:27;;;;;;;24.60;11.90;;;;;;;22.44;81.46;100659.70;1903690;75;21097;-71
2022/08/02 22:30:56;;;;;;;23.00;11.48;;;;;;;22.39;81.38;100657.92;1903831;75;21117;-70
2022/08/02 22:36:11;;;;;;;21.73;11.38;;;;;;;22.33;81.01;100656.64;1903849;75;21019;-71
2022/08/02 22:38:40;;;;;;;26.62;11.95;;;;;;;22.30;80.81;100660.47;1903777;75;21075;-72
2022/08/02 22:41:08;;;;;;;23.87;11.33;;;;;;;22.27;80.87;100658.05;1903814;75;21111;-71
2022/08/02 22:43:37;;;;;;;26.50;12.25;;;;;;;22.24;81.10;100666.33;1903833;75;21000;-70
2022/08/02 22:46:06;;;;;;;24.50;11.53;;;;;;;22.21;81.43;100656.40;1903803;75;21168;-70
2022/08/02 22:48:34;;;;;;;25.77;12.50;;;;;;;22.19;81.31;100665.91;1903777;75;21060;-71
2022/08/02 22:51:03;;;;;;;23.73;12.90;;;;;;;22.17;81.36;100659.84;1903808;75;21037;-69
2022/08/02 22:53:32;;;;;;;25.27;12.58;;;;;;;22.14;81.30;100667.66;1903732;75;21113;-70
2022/08/02 22:56:00;;;;;;;25.43;12.28;;;;;;;22.14;81.34;100658.77;1903748;75;21160;-71
2022/08/02 22:58:29;;;;;;;26.65;12.20;;;;;;;22.12;81.25;100663.42;1903825;75;21004;-72
2022/08/02 23:00:58;;;;;;;20.02;11.08;;;;;;;22.10;81.15;100655.51;1903839;75;21036;-71
2022/08/02 23:03:26;;;;;;;28.07;12.40;;;;;;;22.09;80.94;100670.39;1903805;75;21036;-70
2022/08/02 23:05:55;;;;;;;21.17;10.63;;;;;;;22.06;80.82;100674.67;1903710;75;21041;-72
2022/08/02 23:08:24;;;;;;;23.00;12.05;;;;;;;22.02;80.76;100679.45;1903795;75;21110;-70
2022/08/02 23:10:52;;;;;;;26.90;11.75;;;;;;;21.98;80.69;100682.05;1903867;75;21007;-71
2022/08/02 23:13:21;;;;;;;24.00;12.40;;;;;;;21.95;80.83;100673.80;1903836;75;21031;-71
2022/08/02 23:21:22;;;;;;;23.42;11.78;;;;;;;21.93;81.41;100680.27;1882675;76;21068;-71
2022/08/02 23:23:51;;;;;;;22.00;11.83;;;;;;;21.90;81.70;100677.37;1882660;76;21518;-71
2022/08/02 23:26:19;;;;;;;24.87;12.05;;;;;;;21.90;81.80;100688.09;1882700;76;21166;-71
2022/08/02 23:28:48;;;;;;;23.80;12.65;;;;;;;21.88;81.85;100686.05;1882533;76;21101;-71
2022/08/02 23:31:34;;;;;;;17.50;10.50;;;;;;;21.81;81.85;100686.22;1882680;75;21117;-71
2022/08/02 23:34:04;;;;;;;24.32;11.73;;;;;;;21.77;81.94;100682.13;1882691;76;21454;-71
2022/08/02 23:36:33;;;;;;;23.02;12.23;;;;;;;21.77;82.11;100678.94;1882693;76;21151;-71
2022/08/02 23:39:02;;;;;;;23.35;11.88;;;;;;;21.76;81.98;100683.96;1882690;76;21043;-70
2022/08/02 23:41:30;;;;;;;17.07;10.50;;;;;;;21.74;81.72;100688.58;1882586;76;21036;-71
2022/08/02 23:43:59;;;;;;;19.50;10.60;;;;;;;21.72;81.61;100684.34;1882706;76;21102;-71
2022/08/02 23:46:27;;;;;;;24.02;12.78;;;;;;;21.68;81.61;100691.80;1882635;76;21105;-71
2022/08/02 23:48:56;;;;;;;29.27;13.00;;;;;;;21.64;81.81;100689.54;1882682;76;21036;-71
2022/08/02 23:51:24;;;;;;;21.55;11.73;;;;;;;21.60;82.26;100683.59;1882688;76;21009;-71
2022/08/02 23:53:53;;;;;;;29.37;12.70;;;;;;;21.55;82.31;100683.97;1882578;76;21555;-72
2022/08/02 23:56:22;;;;;;;25.52;12.37;;;;;;;21.49;82.73;100677.81;1882654;76;21047;-71
2022/08/02 23:58:50;;;;;;;21.85;10.95;;;;;;;21.44;82.97;100675.98;1882667;76;21007;-71
